sensor_id;sensor_type;location;lat;lon;timestamp;temperature;humidity
16074;DHT22;8141;52.664;5.074;2023-10-19T00:00:34;18.70;60.10
16074;DHT22;8141;52.664;5.074;2023-10-19T00:03:05;18.70;60.10
16074;DHT22;8141;52.664;5.074;2023-10-19T00:05:34;18.70;60.80
16074;DHT22;8141;52.664;5.074;2023-10-19T00:08:01;18.70;60.20
16074;DHT22;8141;52.664;5.074;2023-10-19T00:10:40;18.70;60.10
16074;DHT22;8141;52.664;5.074;2023-10-19T00:13:11;18.70;60.10
16074;DHT22;8141;52.664;5.074;2023-10-19T00:15:42;18.70;60.10
16074;DHT22;8141;52.664;5.074;2023-10-19T00:18:20;18.70;60.00
16074;DHT22;8141;52.664;5.074;2023-10-19T00:20:49;18.70;60.10
16074;DHT22;8141;52.664;5.074;2023-10-19T00:23:25;18.70;60.10
16074;DHT22;8141;52.664;5.074;2023-10-19T00:25:58;18.70;60.10
16074;DHT22;8141;52.664;5.074;2023-10-19T00:28:27;18.70;60.20
16074;DHT22;8141;52.664;5.074;2023-10-19T00:30:54;18.70;60.30
16074;DHT22;8141;52.664;5.074;2023-10-19T00:33:25;18.70;60.40
16074;DHT22;8141;52.664;5.074;2023-10-19T00:35:54;18.70;60.50
16074;DHT22;8141;52.664;5.074;2023-10-19T00:38:25;18.70;60.60
16074;DHT22;8141;52.664;5.074;2023-10-19T00:40:55;18.80;60.70
16074;DHT22;8141;52.664;5.074;2023-10-19T00:43:31;18.70;60.70
16074;DHT22;8141;52.664;5.074;2023-10-19T00:46:00;18.80;60.70
16074;DHT22;8141;52.664;5.074;2023-10-19T00:48:56;18.70;60.80
16074;DHT22;8141;52.664;5.074;2023-10-19T00:51:52;18.80;60.70
16074;DHT22;8141;52.664;5.074;2023-10-19T00:54:32;18.80;60.90
16074;DHT22;8141;52.664;5.074;2023-10-19T00:57:04;18.70;60.80
16074;DHT22;8141;52.664;5.074;2023-10-19T00:59:38;18.70;60.70
16074;DHT22;8141;52.664;5.074;2023-10-19T01:02:24;18.80;60.70
16074;DHT22;8141;52.664;5.074;2023-10-19T01:04:53;18.70;60.70
16074;DHT22;8141;52.664;5.074;2023-10-19T01:07:33;18.70;60.60
16074;DHT22;8141;52.664;5.074;2023-10-19T01:10:04;18.70;60.70
16074;DHT22;8141;52.664;5.074;2023-10-19T01:12:34;18.80;60.80
16074;DHT22;8141;52.664;5.074;2023-10-19T01:15:11;18.80;60.70
16074;DHT22;8141;52.664;5.074;2023-10-19T01:17:54;18.80;60.70
16074;DHT22;8141;52.664;5.074;2023-10-19T01:20:29;18.80;60.60
16074;DHT22;8141;52.664;5.074;2023-10-19T01:23:01;18.80;60.60
16074;DHT22;8141;52.664;5.074;2023-10-19T01:25:48;18.80;60.60
16074;DHT22;8141;52.664;5.074;2023-10-19T01:28:42;18.80;60.60
16074;DHT22;8141;52.664;5.074;2023-10-19T01:31:18;18.80;60.70
16074;DHT22;8141;52.664;5.074;2023-10-19T01:34:00;18.80;61.30
16074;DHT22;8141;52.664;5.074;2023-10-19T01:36:34;18.80;61.20
16074;DHT22;8141;52.664;5.074;2023-10-19T01:39:10;18.70;60.60
16074;DHT22;8141;52.664;5.074;2023-10-19T01:41:37;18.80;60.60
16074;DHT22;8141;52.664;5.074;2023-10-19T01:44:04;18.80;60.70
16074;DHT22;8141;52.664;5.074;2023-10-19T01:46:30;18.80;60.70
16074;DHT22;8141;52.664;5.074;2023-10-19T01:49:00;18.80;60.70
16074;DHT22;8141;52.664;5.074;2023-10-19T01:51:31;18.80;60.70
16074;DHT22;8141;52.664;5.074;2023-10-19T01:53:59;18.80;61.20
16074;DHT22;8141;52.664;5.074;2023-10-19T01:56:28;18.80;60.60
16074;DHT22;8141;52.664;5.074;2023-10-19T01:58:54;18.80;60.70
16074;DHT22;8141;52.664;5.074;2023-10-19T02:01:20;18.80;60.60
16074;DHT22;8141;52.664;5.074;2023-10-19T02:03:59;18.80;60.60
16074;DHT22;8141;52.664;5.074;2023-10-19T02:06:27;18.80;60.70
16074;DHT22;8141;52.664;5.074;2023-10-19T02:09:10;18.80;60.80
16074;DHT22;8141;52.664;5.074;2023-10-19T02:11:42;18.80;61.00
16074;DHT22;8141;52.664;5.074;2023-10-19T02:14:11;18.80;61.00
16074;DHT22;8141;52.664;5.074;2023-10-19T02:17:00;18.80;61.00
16074;DHT22;8141;52.664;5.074;2023-10-19T02:19:29;18.80;61.00
16074;DHT22;8141;52.664;5.074;2023-10-19T02:21:56;18.80;61.10
16074;DHT22;8141;52.664;5.074;2023-10-19T02:24:29;18.80;61.70
16074;DHT22;8141;52.664;5.074;2023-10-19T02:26:55;18.80;61.10
16074;DHT22;8141;52.664;5.074;2023-10-19T02:29:22;18.80;61.10
16074;DHT22;8141;52.664;5.074;2023-10-19T02:31:48;18.80;61.20
16074;DHT22;8141;52.664;5.074;2023-10-19T02:34:15;18.80;61.20
16074;DHT22;8141;52.664;5.074;2023-10-19T02:36:41;18.80;61.30
16074;DHT22;8141;52.664;5.074;2023-10-19T02:39:08;18.90;61.50
16074;DHT22;8141;52.664;5.074;2023-10-19T02:41:39;18.90;61.60
16074;DHT22;8141;52.664;5.074;2023-10-19T02:44:12;18.80;61.90
16074;DHT22;8141;52.664;5.074;2023-10-19T02:49:18;18.90;61.80
16074;DHT22;8141;52.664;5.074;2023-10-19T02:51:46;18.90;61.80
16074;DHT22;8141;52.664;5.074;2023-10-19T02:54:16;18.90;62.00
16074;DHT22;8141;52.664;5.074;2023-10-19T02:56:50;18.90;61.80
16074;DHT22;8141;52.664;5.074;2023-10-19T02:59:19;18.80;61.80
16074;DHT22;8141;52.664;5.074;2023-10-19T03:01:53;18.90;61.80
16074;DHT22;8141;52.664;5.074;2023-10-19T03:04:43;18.90;62.10
16074;DHT22;8141;52.664;5.074;2023-10-19T03:07:10;18.90;62.20
16074;DHT22;8141;52.664;5.074;2023-10-19T03:09:38;18.90;62.00
16074;DHT22;8141;52.664;5.074;2023-10-19T03:12:04;18.90;62.10
16074;DHT22;8141;52.664;5.074;2023-10-19T03:14:35;18.90;62.30
16074;DHT22;8141;52.664;5.074;2023-10-19T03:17:03;18.90;62.00
16074;DHT22;8141;52.664;5.074;2023-10-19T03:19:29;18.90;62.30
16074;DHT22;8141;52.664;5.074;2023-10-19T03:21:55;19.00;62.30
16074;DHT22;8141;52.664;5.074;2023-10-19T03:24:21;18.90;62.00
16074;DHT22;8141;52.664;5.074;2023-10-19T03:27:07;18.90;63.10
16074;DHT22;8141;52.664;5.074;2023-10-19T03:29:47;18.90;63.00
16074;DHT22;8141;52.664;5.074;2023-10-19T03:32:19;18.80;63.70
16074;DHT22;8141;52.664;5.074;2023-10-19T03:34:52;18.80;64.10
16074;DHT22;8141;52.664;5.074;2023-10-19T03:37:22;18.70;64.10
16074;DHT22;8141;52.664;5.074;2023-10-19T03:39:50;18.70;64.30
16074;DHT22;8141;52.664;5.074;2023-10-19T03:42:17;18.70;64.40
16074;DHT22;8141;52.664;5.074;2023-10-19T03:44:42;18.70;64.20
16074;DHT22;8141;52.664;5.074;2023-10-19T03:47:14;18.60;64.50
16074;DHT22;8141;52.664;5.074;2023-10-19T03:49:45;18.60;64.70
16074;DHT22;8141;52.664;5.074;2023-10-19T03:52:12;18.60;65.00
16074;DHT22;8141;52.664;5.074;2023-10-19T03:54:46;18.50;65.50
16074;DHT22;8141;52.664;5.074;2023-10-19T03:57:16;18.60;65.30
16074;DHT22;8141;52.664;5.074;2023-10-19T03:59:46;18.50;65.40
16074;DHT22;8141;52.664;5.074;2023-10-19T04:02:15;18.50;65.30
16074;DHT22;8141;52.664;5.074;2023-10-19T04:04:42;18.50;65.50
16074;DHT22;8141;52.664;5.074;2023-10-19T04:07:10;18.50;65.70
16074;DHT22;8141;52.664;5.074;2023-10-19T04:09:56;18.50;65.70
16074;DHT22;8141;52.664;5.074;2023-10-19T04:12:23;18.50;66.20
16074;DHT22;8141;52.664;5.074;2023-10-19T04:14:49;18.50;66.60
16074;DHT22;8141;52.664;5.074;2023-10-19T04:17:15;18.50;66.00
16074;DHT22;8141;52.664;5.074;2023-10-19T04:19:42;18.50;66.70
16074;DHT22;8141;52.664;5.074;2023-10-19T04:22:09;18.40;66.40
16074;DHT22;8141;52.664;5.074;2023-10-19T04:24:47;18.40;66.50
16074;DHT22;8141;52.664;5.074;2023-10-19T04:27:12;18.40;66.40
16074;DHT22;8141;52.664;5.074;2023-10-19T04:29:38;18.40;66.90
16074;DHT22;8141;52.664;5.074;2023-10-19T04:32:06;18.40;66.60
16074;DHT22;8141;52.664;5.074;2023-10-19T04:34:32;18.40;66.90
16074;DHT22;8141;52.664;5.074;2023-10-19T04:36:58;18.40;66.90
16074;DHT22;8141;52.664;5.074;2023-10-19T04:39:23;18.40;67.00
16074;DHT22;8141;52.664;5.074;2023-10-19T04:41:49;18.40;67.10
16074;DHT22;8141;52.664;5.074;2023-10-19T04:44:15;18.40;67.60
16074;DHT22;8141;52.664;5.074;2023-10-19T04:46:42;18.40;67.30
16074;DHT22;8141;52.664;5.074;2023-10-19T04:49:08;18.40;67.40
16074;DHT22;8141;52.664;5.074;2023-10-19T04:51:34;18.30;67.30
16074;DHT22;8141;52.664;5.074;2023-10-19T04:54:04;18.30;67.70
16074;DHT22;8141;52.664;5.074;2023-10-19T04:56:31;18.30;67.20
16074;DHT22;8141;52.664;5.074;2023-10-19T04:58:57;18.30;67.70
16074;DHT22;8141;52.664;5.074;2023-10-19T05:01:23;18.30;67.20
16074;DHT22;8141;52.664;5.074;2023-10-19T05:03:48;18.30;67.90
16074;DHT22;8141;52.664;5.074;2023-10-19T05:06:14;18.30;68.30
16074;DHT22;8141;52.664;5.074;2023-10-19T05:08:40;18.30;68.10
16074;DHT22;8141;52.664;5.074;2023-10-19T05:11:05;18.30;68.30
16074;DHT22;8141;52.664;5.074;2023-10-19T05:13:31;18.20;68.80
16074;DHT22;8141;52.664;5.074;2023-10-19T05:15:58;18.30;68.40
16074;DHT22;8141;52.664;5.074;2023-10-19T05:18:25;18.30;68.60
16074;DHT22;8141;52.664;5.074;2023-10-19T05:20:52;18.30;68.80
16074;DHT22;8141;52.664;5.074;2023-10-19T05:23:23;18.20;68.50
16074;DHT22;8141;52.664;5.074;2023-10-19T05:25:50;18.20;68.20
16074;DHT22;8141;52.664;5.074;2023-10-19T05:28:17;18.20;68.30
16074;DHT22;8141;52.664;5.074;2023-10-19T05:30:44;18.20;69.00
16074;DHT22;8141;52.664;5.074;2023-10-19T05:33:10;18.20;69.20
16074;DHT22;8141;52.664;5.074;2023-10-19T05:35:36;18.20;68.90
16074;DHT22;8141;52.664;5.074;2023-10-19T05:38:07;18.20;69.20
16074;DHT22;8141;52.664;5.074;2023-10-19T05:40:33;18.20;69.10
16074;DHT22;8141;52.664;5.074;2023-10-19T05:42:59;18.20;69.50
16074;DHT22;8141;52.664;5.074;2023-10-19T05:45:27;18.20;69.60
16074;DHT22;8141;52.664;5.074;2023-10-19T05:47:55;18.20;69.50
16074;DHT22;8141;52.664;5.074;2023-10-19T05:50:23;18.20;69.40
16074;DHT22;8141;52.664;5.074;2023-10-19T05:52:49;18.20;69.50
16074;DHT22;8141;52.664;5.074;2023-10-19T05:55:17;18.20;69.80
16074;DHT22;8141;52.664;5.074;2023-10-19T05:57:43;18.20;69.50
16074;DHT22;8141;52.664;5.074;2023-10-19T06:00:11;18.20;69.70
16074;DHT22;8141;52.664;5.074;2023-10-19T06:02:45;18.20;69.80
16074;DHT22;8141;52.664;5.074;2023-10-19T06:05:12;18.20;70.00
16074;DHT22;8141;52.664;5.074;2023-10-19T06:07:41;18.20;69.80
16074;DHT22;8141;52.664;5.074;2023-10-19T06:10:11;18.20;70.00
16074;DHT22;8141;52.664;5.074;2023-10-19T06:12:44;18.20;70.00
16074;DHT22;8141;52.664;5.074;2023-10-19T06:15:12;18.20;69.30
16074;DHT22;8141;52.664;5.074;2023-10-19T06:17:39;18.20;69.90
16074;DHT22;8141;52.664;5.074;2023-10-19T06:20:07;18.20;70.00
16074;DHT22;8141;52.664;5.074;2023-10-19T06:22:35;18.20;69.70
16074;DHT22;8141;52.664;5.074;2023-10-19T06:25:02;18.20;69.60
16074;DHT22;8141;52.664;5.074;2023-10-19T06:27:31;18.20;69.60
16074;DHT22;8141;52.664;5.074;2023-10-19T06:29:57;18.20;69.70
16074;DHT22;8141;52.664;5.074;2023-10-19T06:32:23;18.20;69.50
16074;DHT22;8141;52.664;5.074;2023-10-19T06:34:49;18.20;70.10
16074;DHT22;8141;52.664;5.074;2023-10-19T06:37:15;18.20;69.90
16074;DHT22;8141;52.664;5.074;2023-10-19T06:39:41;18.20;69.60
16074;DHT22;8141;52.664;5.074;2023-10-19T06:42:08;18.20;69.40
16074;DHT22;8141;52.664;5.074;2023-10-19T06:44:40;18.20;69.80
16074;DHT22;8141;52.664;5.074;2023-10-19T06:47:09;18.20;69.50
16074;DHT22;8141;52.664;5.074;2023-10-19T06:49:36;18.20;69.70
16074;DHT22;8141;52.664;5.074;2023-10-19T06:52:02;18.20;69.90
16074;DHT22;8141;52.664;5.074;2023-10-19T06:54:30;18.20;70.30
16074;DHT22;8141;52.664;5.074;2023-10-19T06:56:57;18.20;70.50
16074;DHT22;8141;52.664;5.074;2023-10-19T06:59:23;18.20;70.20
16074;DHT22;8141;52.664;5.074;2023-10-19T07:01:49;18.20;70.00
16074;DHT22;8141;52.664;5.074;2023-10-19T07:04:15;18.20;69.60
16074;DHT22;8141;52.664;5.074;2023-10-19T07:06:41;18.20;69.70
16074;DHT22;8141;52.664;5.074;2023-10-19T07:09:07;18.20;69.90
16074;DHT22;8141;52.664;5.074;2023-10-19T07:11:35;18.20;69.30
16074;DHT22;8141;52.664;5.074;2023-10-19T07:14:01;18.20;69.90
16074;DHT22;8141;52.664;5.074;2023-10-19T07:16:27;18.20;70.20
16074;DHT22;8141;52.664;5.074;2023-10-19T07:18:53;18.20;69.70
16074;DHT22;8141;52.664;5.074;2023-10-19T07:21:18;18.20;70.90
16074;DHT22;8141;52.664;5.074;2023-10-19T07:23:44;18.20;71.10
16074;DHT22;8141;52.664;5.074;2023-10-19T07:26:11;18.20;71.10
16074;DHT22;8141;52.664;5.074;2023-10-19T07:28:39;18.20;70.00
16074;DHT22;8141;52.664;5.074;2023-10-19T07:31:05;18.20;70.50
16074;DHT22;8141;52.664;5.074;2023-10-19T07:33:37;18.20;70.40
16074;DHT22;8141;52.664;5.074;2023-10-19T07:36:12;18.20;69.80
16074;DHT22;8141;52.664;5.074;2023-10-19T07:38:39;18.20;70.70
16074;DHT22;8141;52.664;5.074;2023-10-19T07:41:07;18.20;70.40
16074;DHT22;8141;52.664;5.074;2023-10-19T07:43:35;18.20;70.90
16074;DHT22;8141;52.664;5.074;2023-10-19T07:46:00;18.20;70.00
16074;DHT22;8141;52.664;5.074;2023-10-19T07:48:26;18.20;70.10
16074;DHT22;8141;52.664;5.074;2023-10-19T07:50:52;18.30;70.90
16074;DHT22;8141;52.664;5.074;2023-10-19T07:53:18;18.20;71.10
16074;DHT22;8141;52.664;5.074;2023-10-19T07:55:44;18.20;70.70
16074;DHT22;8141;52.664;5.074;2023-10-19T07:58:10;18.20;70.60
16074;DHT22;8141;52.664;5.074;2023-10-19T08:00:35;18.20;70.00
16074;DHT22;8141;52.664;5.074;2023-10-19T08:03:02;18.20;70.30
16074;DHT22;8141;52.664;5.074;2023-10-19T08:05:29;18.20;70.60
16074;DHT22;8141;52.664;5.074;2023-10-19T08:07:55;18.20;70.60
16074;DHT22;8141;52.664;5.074;2023-10-19T08:10:23;18.20;70.40
16074;DHT22;8141;52.664;5.074;2023-10-19T08:12:50;18.20;70.60
16074;DHT22;8141;52.664;5.074;2023-10-19T08:15:17;18.30;70.70
16074;DHT22;8141;52.664;5.074;2023-10-19T08:17:44;18.20;71.10
16074;DHT22;8141;52.664;5.074;2023-10-19T08:20:12;18.20;70.70
16074;DHT22;8141;52.664;5.074;2023-10-19T08:22:41;18.20;70.80
16074;DHT22;8141;52.664;5.074;2023-10-19T08:25:08;18.30;71.10
16074;DHT22;8141;52.664;5.074;2023-10-19T08:27:41;18.30;71.40
16074;DHT22;8141;52.664;5.074;2023-10-19T08:30:10;18.30;70.70
16074;DHT22;8141;52.664;5.074;2023-10-19T08:32:42;18.20;71.10
16074;DHT22;8141;52.664;5.074;2023-10-19T08:35:10;18.30;71.40
16074;DHT22;8141;52.664;5.074;2023-10-19T08:37:39;18.30;71.30
16074;DHT22;8141;52.664;5.074;2023-10-19T08:40:10;18.30;71.50
16074;DHT22;8141;52.664;5.074;2023-10-19T08:42:43;18.30;71.70
16074;DHT22;8141;52.664;5.074;2023-10-19T08:45:13;18.30;71.30
16074;DHT22;8141;52.664;5.074;2023-10-19T08:47:53;18.30;70.70
16074;DHT22;8141;52.664;5.074;2023-10-19T08:50:21;18.30;71.00
16074;DHT22;8141;52.664;5.074;2023-10-19T08:52:50;18.20;71.80
16074;DHT22;8141;52.664;5.074;2023-10-19T08:55:18;18.30;70.50
16074;DHT22;8141;52.664;5.074;2023-10-19T08:57:43;18.30;71.30
16074;DHT22;8141;52.664;5.074;2023-10-19T09:00:09;18.30;70.70
16074;DHT22;8141;52.664;5.074;2023-10-19T09:02:36;18.30;71.40
16074;DHT22;8141;52.664;5.074;2023-10-19T09:05:08;18.30;71.40
16074;DHT22;8141;52.664;5.074;2023-10-19T09:07:34;18.30;71.70
16074;DHT22;8141;52.664;5.074;2023-10-19T09:10:00;18.30;71.40
16074;DHT22;8141;52.664;5.074;2023-10-19T09:12:31;18.30;72.00
16074;DHT22;8141;52.664;5.074;2023-10-19T09:14:56;18.30;72.00
16074;DHT22;8141;52.664;5.074;2023-10-19T09:17:28;18.30;71.60
16074;DHT22;8141;52.664;5.074;2023-10-19T09:19:55;18.30;71.80
16074;DHT22;8141;52.664;5.074;2023-10-19T09:22:21;18.30;72.40
16074;DHT22;8141;52.664;5.074;2023-10-19T09:24:50;18.30;72.00
16074;DHT22;8141;52.664;5.074;2023-10-19T09:27:21;18.40;72.00
16074;DHT22;8141;52.664;5.074;2023-10-19T09:29:47;18.40;71.90
16074;DHT22;8141;52.664;5.074;2023-10-19T09:32:14;18.30;72.50
16074;DHT22;8141;52.664;5.074;2023-10-19T09:34:40;18.30;72.40
16074;DHT22;8141;52.664;5.074;2023-10-19T09:37:09;18.30;72.40
16074;DHT22;8141;52.664;5.074;2023-10-19T09:39:35;18.30;72.90
16074;DHT22;8141;52.664;5.074;2023-10-19T09:42:08;18.30;72.90
16074;DHT22;8141;52.664;5.074;2023-10-19T09:44:51;18.30;72.70
16074;DHT22;8141;52.664;5.074;2023-10-19T09:47:29;18.40;72.90
16074;DHT22;8141;52.664;5.074;2023-10-19T09:49:59;18.30;73.40
16074;DHT22;8141;52.664;5.074;2023-10-19T09:52:24;18.30;73.80
16074;DHT22;8141;52.664;5.074;2023-10-19T09:54:57;18.40;73.90
16074;DHT22;8141;52.664;5.074;2023-10-19T09:57:31;18.40;73.70
16074;DHT22;8141;52.664;5.074;2023-10-19T10:00:01;18.40;74.20
16074;DHT22;8141;52.664;5.074;2023-10-19T10:02:38;18.40;73.90
16074;DHT22;8141;52.664;5.074;2023-10-19T10:05:25;18.40;73.70
16074;DHT22;8141;52.664;5.074;2023-10-19T10:10:44;18.40;74.00
16074;DHT22;8141;52.664;5.074;2023-10-19T10:15:58;18.40;74.40
16074;DHT22;8141;52.664;5.074;2023-10-19T10:18:35;18.50;74.80
16074;DHT22;8141;52.664;5.074;2023-10-19T10:21:11;18.50;74.10
16074;DHT22;8141;52.664;5.074;2023-10-19T10:23:41;18.50;74.10
16074;DHT22;8141;52.664;5.074;2023-10-19T10:26:21;18.50;74.30
16074;DHT22;8141;52.664;5.074;2023-10-19T10:29:13;18.50;74.30
16074;DHT22;8141;52.664;5.074;2023-10-19T10:31:45;18.50;74.30
16074;DHT22;8141;52.664;5.074;2023-10-19T10:37:03;18.50;74.00
16074;DHT22;8141;52.664;5.074;2023-10-19T10:39:30;18.50;74.80
16074;DHT22;8141;52.664;5.074;2023-10-19T10:41:57;18.50;73.40
16074;DHT22;8141;52.664;5.074;2023-10-19T10:47:09;18.50;74.00
16074;DHT22;8141;52.664;5.074;2023-10-19T10:49:54;18.50;73.70
16074;DHT22;8141;52.664;5.074;2023-10-19T10:52:31;18.50;73.40
16074;DHT22;8141;52.664;5.074;2023-10-19T10:55:05;18.50;74.20
16074;DHT22;8141;52.664;5.074;2023-10-19T10:57:38;18.50;73.20
16074;DHT22;8141;52.664;5.074;2023-10-19T11:00:05;18.50;74.20
16074;DHT22;8141;52.664;5.074;2023-10-19T11:02:35;18.50;74.10
16074;DHT22;8141;52.664;5.074;2023-10-19T11:05:01;18.50;74.20
16074;DHT22;8141;52.664;5.074;2023-10-19T11:07:28;18.50;74.10
16074;DHT22;8141;52.664;5.074;2023-10-19T11:09:55;18.50;73.60
16074;DHT22;8141;52.664;5.074;2023-10-19T11:12:20;18.60;74.20
16074;DHT22;8141;52.664;5.074;2023-10-19T11:14:52;18.60;74.10
16074;DHT22;8141;52.664;5.074;2023-10-19T11:17:19;18.60;73.50
16074;DHT22;8141;52.664;5.074;2023-10-19T11:19:49;18.60;75.10
16074;DHT22;8141;52.664;5.074;2023-10-19T11:22:15;18.60;74.50
16074;DHT22;8141;52.664;5.074;2023-10-19T11:24:40;18.50;75.40
16074;DHT22;8141;52.664;5.074;2023-10-19T11:27:06;18.60;76.00
16074;DHT22;8141;52.664;5.074;2023-10-19T11:29:37;18.60;75.40
16074;DHT22;8141;52.664;5.074;2023-10-19T11:32:03;18.50;76.20
16074;DHT22;8141;52.664;5.074;2023-10-19T11:34:29;18.60;76.00
16074;DHT22;8141;52.664;5.074;2023-10-19T11:36:58;18.60;76.40
16074;DHT22;8141;52.664;5.074;2023-10-19T11:39:27;18.60;76.60
16074;DHT22;8141;52.664;5.074;2023-10-19T11:41:53;18.50;77.20
16074;DHT22;8141;52.664;5.074;2023-10-19T11:44:19;18.50;76.50
16074;DHT22;8141;52.664;5.074;2023-10-19T11:46:45;18.60;78.00
16074;DHT22;8141;52.664;5.074;2023-10-19T11:49:10;18.60;76.80
16074;DHT22;8141;52.664;5.074;2023-10-19T11:51:37;18.50;76.80
16074;DHT22;8141;52.664;5.074;2023-10-19T11:54:04;18.60;76.20
16074;DHT22;8141;52.664;5.074;2023-10-19T11:56:31;18.60;77.40
16074;DHT22;8141;52.664;5.074;2023-10-19T11:58:57;18.60;77.60
16074;DHT22;8141;52.664;5.074;2023-10-19T12:01:23;18.60;76.50
16074;DHT22;8141;52.664;5.074;2023-10-19T12:03:50;18.60;77.10
16074;DHT22;8141;52.664;5.074;2023-10-19T12:06:16;18.60;77.10
16074;DHT22;8141;52.664;5.074;2023-10-19T12:08:45;18.60;77.50
16074;DHT22;8141;52.664;5.074;2023-10-19T12:11:10;18.70;77.70
16074;DHT22;8141;52.664;5.074;2023-10-19T12:13:44;18.60;77.00
16074;DHT22;8141;52.664;5.074;2023-10-19T12:16:10;18.60;77.90
16074;DHT22;8141;52.664;5.074;2023-10-19T12:18:41;18.70;76.90
16074;DHT22;8141;52.664;5.074;2023-10-19T12:21:10;18.70;76.70
16074;DHT22;8141;52.664;5.074;2023-10-19T12:23:39;18.70;77.10
16074;DHT22;8141;52.664;5.074;2023-10-19T12:26:06;18.70;77.10
16074;DHT22;8141;52.664;5.074;2023-10-19T12:28:37;18.70;76.90
16074;DHT22;8141;52.664;5.074;2023-10-19T12:31:03;18.70;77.60
16074;DHT22;8141;52.664;5.074;2023-10-19T12:33:30;18.70;77.90
16074;DHT22;8141;52.664;5.074;2023-10-19T12:35:56;18.70;78.70
16074;DHT22;8141;52.664;5.074;2023-10-19T12:38:25;18.80;78.60
16074;DHT22;8141;52.664;5.074;2023-10-19T12:40:51;18.80;77.60
16074;DHT22;8141;52.664;5.074;2023-10-19T12:43:17;18.80;77.20
16074;DHT22;8141;52.664;5.074;2023-10-19T12:45:44;18.80;78.20
16074;DHT22;8141;52.664;5.074;2023-10-19T12:48:16;18.80;78.40
16074;DHT22;8141;52.664;5.074;2023-10-19T12:50:42;18.80;78.90
16074;DHT22;8141;52.664;5.074;2023-10-19T12:53:08;18.80;79.10
16074;DHT22;8141;52.664;5.074;2023-10-19T12:55:34;18.80;77.80
16074;DHT22;8141;52.664;5.074;2023-10-19T12:58:02;18.80;77.20
16074;DHT22;8141;52.664;5.074;2023-10-19T13:00:35;18.80;77.80
16074;DHT22;8141;52.664;5.074;2023-10-19T13:03:09;18.80;77.80
16074;DHT22;8141;52.664;5.074;2023-10-19T13:05:39;18.80;79.00
16074;DHT22;8141;52.664;5.074;2023-10-19T13:08:09;18.90;78.30
16074;DHT22;8141;52.664;5.074;2023-10-19T13:10:39;18.80;78.90
16074;DHT22;8141;52.664;5.074;2023-10-19T13:13:08;18.90;79.90
16074;DHT22;8141;52.664;5.074;2023-10-19T13:15:39;18.90;79.00
16074;DHT22;8141;52.664;5.074;2023-10-19T13:18:05;18.90;78.70
16074;DHT22;8141;52.664;5.074;2023-10-19T13:20:32;18.90;78.60
16074;DHT22;8141;52.664;5.074;2023-10-19T13:23:02;18.90;78.30
16074;DHT22;8141;52.664;5.074;2023-10-19T13:25:29;18.90;78.50
16074;DHT22;8141;52.664;5.074;2023-10-19T13:28:05;19.00;78.50
16074;DHT22;8141;52.664;5.074;2023-10-19T13:30:37;19.00;78.10
16074;DHT22;8141;52.664;5.074;2023-10-19T13:33:07;19.00;78.10
16074;DHT22;8141;52.664;5.074;2023-10-19T13:35:37;19.00;78.30
16074;DHT22;8141;52.664;5.074;2023-10-19T13:38:04;19.00;78.10
16074;DHT22;8141;52.664;5.074;2023-10-19T13:40:30;19.00;78.10
16074;DHT22;8141;52.664;5.074;2023-10-19T13:42:56;19.00;77.60
16074;DHT22;8141;52.664;5.074;2023-10-19T13:45:23;19.00;78.10
16074;DHT22;8141;52.664;5.074;2023-10-19T13:47:49;19.10;77.90
16074;DHT22;8141;52.664;5.074;2023-10-19T13:50:14;19.00;78.10
16074;DHT22;8141;52.664;5.074;2023-10-19T13:52:40;19.00;77.90
16074;DHT22;8141;52.664;5.074;2023-10-19T13:55:06;19.10;78.00
16074;DHT22;8141;52.664;5.074;2023-10-19T13:57:33;19.10;78.00
16074;DHT22;8141;52.664;5.074;2023-10-19T13:59:59;19.10;77.50
16074;DHT22;8141;52.664;5.074;2023-10-19T14:02:26;19.10;77.40
16074;DHT22;8141;52.664;5.074;2023-10-19T14:04:52;19.10;79.10
16074;DHT22;8141;52.664;5.074;2023-10-19T14:07:18;19.10;78.50
16074;DHT22;8141;52.664;5.074;2023-10-19T14:09:45;19.10;77.40
16074;DHT22;8141;52.664;5.074;2023-10-19T14:12:10;19.10;77.60
16074;DHT22;8141;52.664;5.074;2023-10-19T14:14:36;19.10;78.10
16074;DHT22;8141;52.664;5.074;2023-10-19T14:17:02;19.10;77.40
16074;DHT22;8141;52.664;5.074;2023-10-19T14:19:27;19.10;78.50
16074;DHT22;8141;52.664;5.074;2023-10-19T14:21:54;19.10;77.80
16074;DHT22;8141;52.664;5.074;2023-10-19T14:24:19;19.10;78.80
16074;DHT22;8141;52.664;5.074;2023-10-19T14:26:46;19.10;77.90
16074;DHT22;8141;52.664;5.074;2023-10-19T14:29:12;19.10;79.30
16074;DHT22;8141;52.664;5.074;2023-10-19T14:31:39;19.10;77.70
16074;DHT22;8141;52.664;5.074;2023-10-19T14:34:06;19.10;78.60
16074;DHT22;8141;52.664;5.074;2023-10-19T14:36:33;19.20;78.00
16074;DHT22;8141;52.664;5.074;2023-10-19T14:38:59;19.20;77.60
16074;DHT22;8141;52.664;5.074;2023-10-19T14:41:24;19.20;77.90
16074;DHT22;8141;52.664;5.074;2023-10-19T14:43:50;19.20;77.20
16074;DHT22;8141;52.664;5.074;2023-10-19T14:46:15;19.30;77.80
16074;DHT22;8141;52.664;5.074;2023-10-19T14:48:41;19.20;77.80
16074;DHT22;8141;52.664;5.074;2023-10-19T14:51:07;19.20;77.00
16074;DHT22;8141;52.664;5.074;2023-10-19T14:53:33;19.30;77.30
16074;DHT22;8141;52.664;5.074;2023-10-19T14:55:59;19.30;77.00
16074;DHT22;8141;52.664;5.074;2023-10-19T14:58:25;19.30;76.20
16074;DHT22;8141;52.664;5.074;2023-10-19T15:00:51;19.30;76.70
16074;DHT22;8141;52.664;5.074;2023-10-19T15:03:23;19.30;77.30
16074;DHT22;8141;52.664;5.074;2023-10-19T15:05:53;19.30;76.50
16074;DHT22;8141;52.664;5.074;2023-10-19T15:08:20;19.30;76.00
16074;DHT22;8141;52.664;5.074;2023-10-19T15:10:48;19.30;76.70
16074;DHT22;8141;52.664;5.074;2023-10-19T15:13:13;19.30;76.80
16074;DHT22;8141;52.664;5.074;2023-10-19T15:15:40;19.30;76.30
16074;DHT22;8141;52.664;5.074;2023-10-19T15:18:06;19.30;75.50
16074;DHT22;8141;52.664;5.074;2023-10-19T15:20:33;19.30;76.00
16074;DHT22;8141;52.664;5.074;2023-10-19T15:23:00;19.30;76.20
16074;DHT22;8141;52.664;5.074;2023-10-19T15:25:26;19.30;76.20
16074;DHT22;8141;52.664;5.074;2023-10-19T15:27:52;19.30;76.00
16074;DHT22;8141;52.664;5.074;2023-10-19T15:30:19;19.30;75.50
16074;DHT22;8141;52.664;5.074;2023-10-19T15:32:48;19.30;75.30
16074;DHT22;8141;52.664;5.074;2023-10-19T15:35:15;19.30;75.70
16074;DHT22;8141;52.664;5.074;2023-10-19T15:37:46;19.30;75.50
16074;DHT22;8141;52.664;5.074;2023-10-19T15:40:17;19.30;75.00
16074;DHT22;8141;52.664;5.074;2023-10-19T15:42:44;19.30;75.60
16074;DHT22;8141;52.664;5.074;2023-10-19T15:45:11;19.40;75.80
16074;DHT22;8141;52.664;5.074;2023-10-19T15:47:38;19.40;75.50
16074;DHT22;8141;52.664;5.074;2023-10-19T15:50:06;19.30;75.10
16074;DHT22;8141;52.664;5.074;2023-10-19T15:52:37;19.40;74.60
16074;DHT22;8141;52.664;5.074;2023-10-19T15:55:10;19.40;74.90
16074;DHT22;8141;52.664;5.074;2023-10-19T15:57:37;19.50;74.10
16074;DHT22;8141;52.664;5.074;2023-10-19T16:00:03;19.50;75.90
16074;DHT22;8141;52.664;5.074;2023-10-19T16:02:31;19.50;77.30
16074;DHT22;8141;52.664;5.074;2023-10-19T16:04:57;19.50;76.20
16074;DHT22;8141;52.664;5.074;2023-10-19T16:07:23;19.40;76.50
16074;DHT22;8141;52.664;5.074;2023-10-19T16:09:49;19.40;76.00